createdAt,value
2023-07-01T00:01:31.789Z,20.88
2023-07-01T00:11:56.093Z,20.87
2023-07-01T00:22:20.213Z,20.78
2023-07-01T00:32:44.528Z,20.66
2023-07-01T00:43:08.682Z,20.71
2023-07-01T00:53:32.866Z,20.79
2023-07-01T01:04:14.144Z,20.81
2023-07-01T01:14:40.926Z,20.67
2023-07-01T01:25:06.153Z,20.68
2023-07-01T01:35:30.595Z,20.45
2023-07-01T01:45:56.141Z,20.34
2023-07-01T01:56:21.503Z,20.42
2023-07-01T02:06:45.675Z,20.52
2023-07-01T02:17:10.145Z,20.56
2023-07-01T02:27:34.857Z,20.49
2023-07-01T02:37:59.317Z,20.47
2023-07-01T02:48:23.462Z,20.37
2023-07-01T02:58:47.646Z,20.30
2023-07-01T03:09:11.861Z,20.15
2023-07-01T03:19:36.051Z,20.05
2023-07-01T03:30:00.443Z,19.85
2023-07-01T03:40:24.683Z,19.59
2023-07-01T03:50:49.569Z,19.56
2023-07-01T04:01:17.169Z,19.81
2023-07-01T04:11:41.895Z,19.99
2023-07-01T04:22:06.460Z,20.08
2023-07-01T04:32:30.883Z,20.16
2023-07-01T04:42:55.430Z,20.25
2023-07-01T04:53:19.640Z,20.20
2023-07-01T05:03:44.017Z,20.13
2023-07-01T05:14:08.391Z,20.26
2023-07-01T05:24:32.813Z,20.24
2023-07-01T05:34:57.055Z,20.09
2023-07-01T05:45:21.463Z,20.04
2023-07-01T05:55:46.736Z,20.14
2023-07-01T06:06:19.468Z,20.17
2023-07-01T06:16:43.819Z,20.22
2023-07-01T06:27:08.940Z,20.24
2023-07-01T06:37:33.780Z,20.38
2023-07-01T06:47:58.676Z,20.33
2023-07-01T06:58:22.909Z,20.34
2023-07-01T07:08:47.109Z,20.38
2023-07-01T07:19:11.258Z,20.46
2023-07-01T07:29:35.429Z,20.49
2023-07-01T07:40:02.734Z,20.48
2023-07-01T07:50:27.844Z,20.50
2023-07-01T08:00:52.022Z,20.55
2023-07-01T08:11:16.383Z,20.62
2023-07-01T08:21:40.499Z,20.77
2023-07-01T08:32:05.860Z,20.91
2023-07-01T08:42:36.570Z,21.05
2023-07-01T08:53:06.771Z,21.12
2023-07-01T09:03:32.728Z,21.20
2023-07-01T09:13:57.571Z,21.18
2023-07-01T09:24:39.109Z,21.24
2023-07-01T09:35:04.590Z,21.32
2023-07-01T09:45:29.006Z,21.37
2023-07-01T09:55:53.166Z,21.43
2023-07-01T10:06:17.463Z,21.46
2023-07-01T10:16:48.923Z,21.53
2023-07-01T10:27:14.814Z,21.84
2023-07-01T10:37:39.300Z,22.07
2023-07-01T10:48:17.052Z,22.14
2023-07-01T10:58:41.688Z,22.20
2023-07-01T11:09:07.928Z,22.19
2023-07-01T11:19:32.832Z,22.25
2023-07-01T11:29:57.892Z,22.47
2023-07-01T11:40:40.653Z,22.47
2023-07-01T11:51:05.292Z,22.50
2023-07-01T12:01:30.650Z,22.63
2023-07-01T12:11:56.396Z,22.71
2023-07-01T12:22:21.293Z,22.79
2023-07-01T12:32:49.602Z,23.04
2023-07-01T12:43:14.459Z,23.28
2023-07-01T12:53:39.275Z,23.45
2023-07-01T13:04:06.049Z,23.51
2023-07-01T13:14:32.134Z,23.48
2023-07-01T13:24:56.347Z,23.51
2023-07-01T13:35:21.573Z,23.61
2023-07-01T13:45:47.105Z,23.69
2023-07-01T13:56:12.650Z,23.66
2023-07-01T14:06:40.103Z,23.55
2023-07-01T14:17:06.814Z,23.60
2023-07-01T14:27:30.593Z,23.73
2023-07-01T14:37:55.008Z,23.82
2023-07-01T14:48:19.271Z,23.97
2023-07-01T14:58:43.845Z,24.16
2023-07-01T15:09:12.447Z,24.28
2023-07-01T15:19:36.022Z,24.37
2023-07-01T15:30:04.838Z,24.42
2023-07-01T15:40:29.146Z,24.42
2023-07-01T15:50:53.474Z,24.38
2023-07-01T16:01:18.529Z,24.42
2023-07-01T16:11:42.744Z,24.41
2023-07-01T16:22:07.413Z,24.40
2023-07-01T16:32:32.287Z,24.41
2023-07-01T16:42:56.687Z,24.37
2023-07-01T16:53:21.076Z,24.40
2023-07-01T17:03:46.341Z,24.46
2023-07-01T17:14:27.836Z,24.49
2023-07-01T17:24:52.263Z,24.46
2023-07-01T17:35:18.989Z,24.39
2023-07-01T17:45:43.148Z,24.33
2023-07-01T17:56:08.254Z,24.28
2023-07-01T18:06:32.362Z,24.21
2023-07-01T18:16:56.706Z,24.09
2023-07-01T18:27:21.143Z,24.00
2023-07-01T18:37:46.618Z,23.90
2023-07-01T18:48:10.764Z,23.72
2023-07-01T18:58:34.963Z,23.54
2023-07-01T19:08:59.319Z,23.35
2023-07-01T19:19:23.836Z,23.19
2023-07-01T19:29:55.915Z,22.99
2023-07-01T19:40:28.255Z,22.70
2023-07-01T19:50:52.824Z,22.57
2023-07-01T20:01:17.110Z,22.55
2023-07-01T20:11:41.350Z,22.52
2023-07-01T20:22:06.129Z,22.59
2023-07-01T20:32:30.353Z,22.62
2023-07-01T20:42:54.658Z,22.58
2023-07-01T20:53:18.882Z,22.40
2023-07-01T21:03:45.280Z,22.22
2023-07-01T21:14:09.586Z,22.26
2023-07-01T21:24:33.738Z,22.16
2023-07-01T21:34:58.771Z,21.88
2023-07-01T21:45:28.626Z,21.49
2023-07-01T21:55:54.409Z,21.34
2023-07-01T22:06:18.707Z,21.34
2023-07-01T22:16:43.051Z,21.35
2023-07-01T22:27:08.961Z,21.14
2023-07-01T22:37:33.075Z,20.86
2023-07-01T22:47:57.284Z,20.55
2023-07-01T22:58:22.220Z,20.31
2023-07-01T23:08:46.494Z,20.13
2023-07-01T23:19:11.770Z,20.27
2023-07-01T23:29:37.996Z,20.30
2023-07-01T23:40:03.264Z,20.48
2023-07-01T23:50:27.723Z,20.68
